sensor_id;sensor_type;location;lat;lon;timestamp;P1;durP1;ratioP1;P2;durP2;ratioP2
47778;SDS011;33538;48.432;11.350;2023-05-15T00:00:25;6.55;;;3.35;;
47778;SDS011;33538;48.432;11.350;2023-05-15T00:02:52;6.68;;;3.78;;
47778;SDS011;33538;48.432;11.350;2023-05-15T00:05:19;6.53;;;3.90;;
47778;SDS011;33538;48.432;11.350;2023-05-15T00:07:46;6.28;;;3.30;;
47778;SDS011;33538;48.432;11.350;2023-05-15T00:10:14;6.95;;;3.70;;
47778;SDS011;33538;48.432;11.350;2023-05-15T00:12:41;7.22;;;3.83;;
47778;SDS011;33538;48.432;11.350;2023-05-15T00:15:08;7.68;;;4.05;;
47778;SDS011;33538;48.432;11.350;2023-05-15T00:17:35;9.65;;;4.57;;
47778;SDS011;33538;48.432;11.350;2023-05-15T00:20:02;8.90;;;4.35;;
47778;SDS011;33538;48.432;11.350;2023-05-15T00:22:29;10.52;;;4.00;;
47778;SDS011;33538;48.432;11.350;2023-05-15T00:24:56;8.90;;;4.47;;
47778;SDS011;33538;48.432;11.350;2023-05-15T00:27:24;10.85;;;4.65;;
47778;SDS011;33538;48.432;11.350;2023-05-15T00:29:51;10.65;;;5.15;;
47778;SDS011;33538;48.432;11.350;2023-05-15T00:32:17;14.77;;;5.95;;
47778;SDS011;33538;48.432;11.350;2023-05-15T00:34:44;10.30;;;5.22;;
47778;SDS011;33538;48.432;11.350;2023-05-15T00:37:11;10.57;;;5.25;;
47778;SDS011;33538;48.432;11.350;2023-05-15T00:39:38;10.52;;;5.18;;
47778;SDS011;33538;48.432;11.350;2023-05-15T00:42:05;12.30;;;4.88;;
47778;SDS011;33538;48.432;11.350;2023-05-15T00:44:34;11.40;;;5.50;;
47778;SDS011;33538;48.432;11.350;2023-05-15T00:47:01;9.07;;;5.30;;
47778;SDS011;33538;48.432;11.350;2023-05-15T00:49:30;11.85;;;5.40;;
47778;SDS011;33538;48.432;11.350;2023-05-15T00:51:57;12.48;;;5.78;;
47778;SDS011;33538;48.432;11.350;2023-05-15T00:54:26;10.32;;;4.72;;
47778;SDS011;33538;48.432;11.350;2023-05-15T00:56:54;11.82;;;5.57;;
47778;SDS011;33538;48.432;11.350;2023-05-15T00:59:21;14.43;;;5.60;;
47778;SDS011;33538;48.432;11.350;2023-05-15T01:01:51;14.02;;;6.30;;
47778;SDS011;33538;48.432;11.350;2023-05-15T01:04:18;12.00;;;5.97;;
47778;SDS011;33538;48.432;11.350;2023-05-15T01:06:45;11.05;;;5.03;;
47778;SDS011;33538;48.432;11.350;2023-05-15T01:09:12;13.25;;;6.03;;
47778;SDS011;33538;48.432;11.350;2023-05-15T01:11:40;13.95;;;6.03;;
47778;SDS011;33538;48.432;11.350;2023-05-15T01:14:07;12.63;;;6.22;;
47778;SDS011;33538;48.432;11.350;2023-05-15T01:16:34;15.95;;;5.93;;
47778;SDS011;33538;48.432;11.350;2023-05-15T01:19:03;13.27;;;5.82;;
47778;SDS011;33538;48.432;11.350;2023-05-15T01:21:48;13.52;;;5.68;;
47778;SDS011;33538;48.432;11.350;2023-05-15T01:24:33;11.10;;;5.32;;
47778;SDS011;33538;48.432;11.350;2023-05-15T01:27:14;10.18;;;4.97;;
47778;SDS011;33538;48.432;11.350;2023-05-15T01:29:47;7.70;;;4.47;;
47778;SDS011;33538;48.432;11.350;2023-05-15T01:32:22;10.65;;;5.03;;
47778;SDS011;33538;48.432;11.350;2023-05-15T01:34:56;13.52;;;5.47;;
47778;SDS011;33538;48.432;11.350;2023-05-15T01:37:27;11.98;;;5.15;;
47778;SDS011;33538;48.432;11.350;2023-05-15T01:39:57;11.18;;;5.30;;
47778;SDS011;33538;48.432;11.350;2023-05-15T01:42:30;8.65;;;4.30;;
47778;SDS011;33538;48.432;11.350;2023-05-15T01:45:00;7.55;;;3.80;;
47778;SDS011;33538;48.432;11.350;2023-05-15T01:47:30;8.40;;;4.45;;
47778;SDS011;33538;48.432;11.350;2023-05-15T01:50:02;9.23;;;4.55;;
47778;SDS011;33538;48.432;11.350;2023-05-15T01:52:31;7.15;;;3.97;;
47778;SDS011;33538;48.432;11.350;2023-05-15T01:55:00;8.90;;;4.20;;
47778;SDS011;33538;48.432;11.350;2023-05-15T01:57:29;6.78;;;3.75;;
47778;SDS011;33538;48.432;11.350;2023-05-15T01:59:56;6.90;;;3.53;;
47778;SDS011;33538;48.432;11.350;2023-05-15T02:02:24;5.47;;;2.90;;
47778;SDS011;33538;48.432;11.350;2023-05-15T02:04:53;5.72;;;3.47;;
47778;SDS011;33538;48.432;11.350;2023-05-15T02:07:21;5.95;;;3.40;;
47778;SDS011;33538;48.432;11.350;2023-05-15T02:09:49;7.40;;;4.00;;
47778;SDS011;33538;48.432;11.350;2023-05-15T02:12:17;7.28;;;4.00;;
47778;SDS011;33538;48.432;11.350;2023-05-15T02:14:47;5.18;;;3.10;;
47778;SDS011;33538;48.432;11.350;2023-05-15T02:17:15;5.47;;;3.72;;
47778;SDS011;33538;48.432;11.350;2023-05-15T02:19:42;9.00;;;4.35;;
47778;SDS011;33538;48.432;11.350;2023-05-15T02:22:09;6.60;;;3.33;;
47778;SDS011;33538;48.432;11.350;2023-05-15T02:24:36;7.35;;;3.53;;
47778;SDS011;33538;48.432;11.350;2023-05-15T02:27:04;8.55;;;4.22;;
47778;SDS011;33538;48.432;11.350;2023-05-15T02:29:35;9.75;;;3.67;;
47778;SDS011;33538;48.432;11.350;2023-05-15T02:32:15;9.85;;;4.57;;
47778;SDS011;33538;48.432;11.350;2023-05-15T02:34:48;11.07;;;5.00;;
47778;SDS011;33538;48.432;11.350;2023-05-15T02:37:30;10.13;;;4.82;;
47778;SDS011;33538;48.432;11.350;2023-05-15T02:40:00;7.78;;;4.43;;
47778;SDS011;33538;48.432;11.350;2023-05-15T02:42:28;9.27;;;4.22;;
47778;SDS011;33538;48.432;11.350;2023-05-15T02:44:56;6.47;;;3.83;;
47778;SDS011;33538;48.432;11.350;2023-05-15T02:47:25;7.80;;;4.05;;
47778;SDS011;33538;48.432;11.350;2023-05-15T02:49:52;8.07;;;4.10;;
47778;SDS011;33538;48.432;11.350;2023-05-15T02:52:21;7.60;;;4.13;;
47778;SDS011;33538;48.432;11.350;2023-05-15T02:54:48;9.63;;;4.47;;
47778;SDS011;33538;48.432;11.350;2023-05-15T02:57:15;7.88;;;3.95;;
47778;SDS011;33538;48.432;11.350;2023-05-15T02:59:42;7.55;;;3.90;;
47778;SDS011;33538;48.432;11.350;2023-05-15T03:02:08;9.48;;;4.35;;
47778;SDS011;33538;48.432;11.350;2023-05-15T03:04:37;9.88;;;4.97;;
47778;SDS011;33538;48.432;11.350;2023-05-15T03:07:03;9.25;;;4.65;;
47778;SDS011;33538;48.432;11.350;2023-05-15T03:09:30;6.82;;;3.88;;
47778;SDS011;33538;48.432;11.350;2023-05-15T03:11:57;8.38;;;4.57;;
47778;SDS011;33538;48.432;11.350;2023-05-15T03:14:24;8.32;;;3.95;;
47778;SDS011;33538;48.432;11.350;2023-05-15T03:16:50;9.07;;;4.70;;
47778;SDS011;33538;48.432;11.350;2023-05-15T03:19:17;8.98;;;4.32;;
47778;SDS011;33538;48.432;11.350;2023-05-15T03:21:45;6.97;;;3.85;;
47778;SDS011;33538;48.432;11.350;2023-05-15T03:24:12;7.03;;;3.78;;
47778;SDS011;33538;48.432;11.350;2023-05-15T03:26:39;8.70;;;4.13;;
47778;SDS011;33538;48.432;11.350;2023-05-15T03:29:05;7.35;;;4.13;;
47778;SDS011;33538;48.432;11.350;2023-05-15T03:31:32;10.93;;;4.72;;
47778;SDS011;33538;48.432;11.350;2023-05-15T03:33:59;9.48;;;3.92;;
47778;SDS011;33538;48.432;11.350;2023-05-15T03:36:26;12.27;;;4.95;;
47778;SDS011;33538;48.432;11.350;2023-05-15T03:38:54;10.00;;;4.82;;
47778;SDS011;33538;48.432;11.350;2023-05-15T03:41:21;12.98;;;5.35;;
47778;SDS011;33538;48.432;11.350;2023-05-15T03:43:48;14.50;;;5.95;;
47778;SDS011;33538;48.432;11.350;2023-05-15T03:46:15;11.88;;;5.90;;
47778;SDS011;33538;48.432;11.350;2023-05-15T03:48:41;14.02;;;6.00;;
47778;SDS011;33538;48.432;11.350;2023-05-15T03:51:08;13.65;;;5.78;;
47778;SDS011;33538;48.432;11.350;2023-05-15T03:53:35;14.32;;;5.82;;
47778;SDS011;33538;48.432;11.350;2023-05-15T03:56:04;14.82;;;6.10;;
47778;SDS011;33538;48.432;11.350;2023-05-15T03:58:31;14.60;;;6.93;;
47778;SDS011;33538;48.432;11.350;2023-05-15T04:00:57;13.80;;;6.32;;
47778;SDS011;33538;48.432;11.350;2023-05-15T04:03:24;15.63;;;6.47;;
47778;SDS011;33538;48.432;11.350;2023-05-15T04:05:51;15.38;;;5.65;;
47778;SDS011;33538;48.432;11.350;2023-05-15T04:08:18;14.75;;;6.35;;
47778;SDS011;33538;48.432;11.350;2023-05-15T04:10:44;16.10;;;6.85;;
47778;SDS011;33538;48.432;11.350;2023-05-15T04:13:13;14.85;;;6.30;;
47778;SDS011;33538;48.432;11.350;2023-05-15T04:15:39;14.48;;;6.38;;
47778;SDS011;33538;48.432;11.350;2023-05-15T04:18:06;14.10;;;6.75;;
47778;SDS011;33538;48.432;11.350;2023-05-15T04:20:33;13.68;;;6.70;;
47778;SDS011;33538;48.432;11.350;2023-05-15T04:23:00;21.70;;;6.10;;
47778;SDS011;33538;48.432;11.350;2023-05-15T04:25:27;13.98;;;6.63;;
47778;SDS011;33538;48.432;11.350;2023-05-15T04:27:54;14.75;;;6.65;;
47778;SDS011;33538;48.432;11.350;2023-05-15T04:30:22;14.52;;;6.28;;
47778;SDS011;33538;48.432;11.350;2023-05-15T04:32:49;14.68;;;6.40;;
47778;SDS011;33538;48.432;11.350;2023-05-15T04:35:16;15.95;;;7.10;;
47778;SDS011;33538;48.432;11.350;2023-05-15T04:37:42;15.32;;;6.85;;
47778;SDS011;33538;48.432;11.350;2023-05-15T04:40:09;16.77;;;6.45;;
47778;SDS011;33538;48.432;11.350;2023-05-15T04:42:36;15.95;;;7.63;;
47778;SDS011;33538;48.432;11.350;2023-05-15T04:45:05;14.45;;;6.18;;
47778;SDS011;33538;48.432;11.350;2023-05-15T04:47:34;15.05;;;6.63;;
47778;SDS011;33538;48.432;11.350;2023-05-15T04:50:01;15.55;;;7.28;;
47778;SDS011;33538;48.432;11.350;2023-05-15T04:52:28;14.85;;;6.63;;
47778;SDS011;33538;48.432;11.350;2023-05-15T04:54:55;12.70;;;6.60;;
47778;SDS011;33538;48.432;11.350;2023-05-15T04:57:21;13.63;;;6.38;;
47778;SDS011;33538;48.432;11.350;2023-05-15T04:59:48;14.55;;;6.47;;
47778;SDS011;33538;48.432;11.350;2023-05-15T05:02:15;19.77;;;7.63;;
47778;SDS011;33538;48.432;11.350;2023-05-15T05:04:47;13.93;;;5.95;;
47778;SDS011;33538;48.432;11.350;2023-05-15T05:07:13;17.02;;;6.60;;
47778;SDS011;33538;48.432;11.350;2023-05-15T05:09:40;13.02;;;6.70;;
47778;SDS011;33538;48.432;11.350;2023-05-15T05:12:07;13.98;;;6.78;;
47778;SDS011;33538;48.432;11.350;2023-05-15T05:14:35;15.73;;;7.18;;
47778;SDS011;33538;48.432;11.350;2023-05-15T05:17:02;14.98;;;7.18;;
47778;SDS011;33538;48.432;11.350;2023-05-15T05:19:29;14.80;;;7.40;;
47778;SDS011;33538;48.432;11.350;2023-05-15T05:21:57;14.73;;;6.85;;
47778;SDS011;33538;48.432;11.350;2023-05-15T05:24:23;13.93;;;6.45;;
47778;SDS011;33538;48.432;11.350;2023-05-15T05:26:50;12.30;;;6.07;;
47778;SDS011;33538;48.432;11.350;2023-05-15T05:29:17;12.43;;;6.30;;
47778;SDS011;33538;48.432;11.350;2023-05-15T05:31:45;13.05;;;6.35;;
47778;SDS011;33538;48.432;11.350;2023-05-15T05:34:12;15.57;;;6.03;;
47778;SDS011;33538;48.432;11.350;2023-05-15T05:36:38;13.25;;;6.30;;
47778;SDS011;33538;48.432;11.350;2023-05-15T05:39:06;11.82;;;6.13;;
47778;SDS011;33538;48.432;11.350;2023-05-15T05:41:33;11.85;;;5.97;;
47778;SDS011;33538;48.432;11.350;2023-05-15T05:44:00;11.05;;;6.13;;
47778;SDS011;33538;48.432;11.350;2023-05-15T05:46:27;15.60;;;5.90;;
47778;SDS011;33538;48.432;11.350;2023-05-15T05:48:54;12.15;;;6.18;;
47778;SDS011;33538;48.432;11.350;2023-05-15T05:51:21;9.80;;;5.03;;
47778;SDS011;33538;48.432;11.350;2023-05-15T05:53:48;11.50;;;5.82;;
47778;SDS011;33538;48.432;11.350;2023-05-15T05:56:16;9.82;;;5.63;;
47778;SDS011;33538;48.432;11.350;2023-05-15T05:58:43;10.00;;;6.10;;
47778;SDS011;33538;48.432;11.350;2023-05-15T06:01:10;10.57;;;5.10;;
47778;SDS011;33538;48.432;11.350;2023-05-15T06:03:37;11.85;;;5.97;;
47778;SDS011;33538;48.432;11.350;2023-05-15T06:06:05;15.25;;;5.78;;
47778;SDS011;33538;48.432;11.350;2023-05-15T06:08:32;10.13;;;5.15;;
47778;SDS011;33538;48.432;11.350;2023-05-15T06:10:58;11.60;;;5.57;;
47778;SDS011;33538;48.432;11.350;2023-05-15T06:13:27;12.65;;;6.57;;
47778;SDS011;33538;48.432;11.350;2023-05-15T06:15:53;15.15;;;7.10;;
47778;SDS011;33538;48.432;11.350;2023-05-15T06:18:20;11.07;;;6.75;;
47778;SDS011;33538;48.432;11.350;2023-05-15T06:20:47;16.05;;;7.63;;
47778;SDS011;33538;48.432;11.350;2023-05-15T06:23:14;14.45;;;6.43;;
47778;SDS011;33538;48.432;11.350;2023-05-15T06:25:40;13.20;;;6.68;;
47778;SDS011;33538;48.432;11.350;2023-05-15T06:28:07;16.83;;;7.50;;
47778;SDS011;33538;48.432;11.350;2023-05-15T06:30:35;13.88;;;6.72;;
47778;SDS011;33538;48.432;11.350;2023-05-15T06:33:02;12.93;;;6.70;;
47778;SDS011;33538;48.432;11.350;2023-05-15T06:35:29;14.70;;;6.30;;
47778;SDS011;33538;48.432;11.350;2023-05-15T06:37:56;14.02;;;7.55;;
47778;SDS011;33538;48.432;11.350;2023-05-15T06:40:23;15.60;;;7.40;;
47778;SDS011;33538;48.432;11.350;2023-05-15T06:42:51;14.52;;;7.18;;
47778;SDS011;33538;48.432;11.350;2023-05-15T06:45:17;12.73;;;6.82;;
47778;SDS011;33538;48.432;11.350;2023-05-15T06:47:45;13.80;;;7.15;;
47778;SDS011;33538;48.432;11.350;2023-05-15T06:50:12;13.98;;;6.70;;
47778;SDS011;33538;48.432;11.350;2023-05-15T06:52:41;13.15;;;7.38;;
47778;SDS011;33538;48.432;11.350;2023-05-15T06:55:12;13.75;;;5.80;;
47778;SDS011;33538;48.432;11.350;2023-05-15T06:57:39;10.30;;;5.35;;
47778;SDS011;33538;48.432;11.350;2023-05-15T07:00:06;14.10;;;7.60;;
47778;SDS011;33538;48.432;11.350;2023-05-15T07:02:34;9.85;;;6.22;;
47778;SDS011;33538;48.432;11.350;2023-05-15T07:05:02;10.18;;;6.13;;
47778;SDS011;33538;48.432;11.350;2023-05-15T07:07:30;11.10;;;6.18;;
47778;SDS011;33538;48.432;11.350;2023-05-15T07:09:56;9.45;;;6.03;;
47778;SDS011;33538;48.432;11.350;2023-05-15T07:12:23;12.35;;;6.55;;
47778;SDS011;33538;48.432;11.350;2023-05-15T07:14:50;12.43;;;7.13;;
47778;SDS011;33538;48.432;11.350;2023-05-15T07:17:17;11.52;;;5.95;;
47778;SDS011;33538;48.432;11.350;2023-05-15T07:19:43;10.70;;;6.00;;
47778;SDS011;33538;48.432;11.350;2023-05-15T07:22:12;13.85;;;6.85;;
47778;SDS011;33538;48.432;11.350;2023-05-15T07:24:38;10.55;;;6.45;;
47778;SDS011;33538;48.432;11.350;2023-05-15T07:27:05;13.73;;;7.63;;
47778;SDS011;33538;48.432;11.350;2023-05-15T07:29:32;11.73;;;6.00;;
47778;SDS011;33538;48.432;11.350;2023-05-15T07:31:59;11.93;;;6.15;;
47778;SDS011;33538;48.432;11.350;2023-05-15T07:34:26;10.68;;;6.95;;
47778;SDS011;33538;48.432;11.350;2023-05-15T07:36:53;11.63;;;5.90;;
47778;SDS011;33538;48.432;11.350;2023-05-15T07:39:21;10.73;;;6.65;;
47778;SDS011;33538;48.432;11.350;2023-05-15T07:41:48;14.55;;;6.20;;
47778;SDS011;33538;48.432;11.350;2023-05-15T07:44:15;10.57;;;6.47;;
47778;SDS011;33538;48.432;11.350;2023-05-15T07:46:42;10.23;;;6.07;;
47778;SDS011;33538;48.432;11.350;2023-05-15T07:49:08;10.35;;;5.95;;
47778;SDS011;33538;48.432;11.350;2023-05-15T07:51:35;12.52;;;6.35;;
47778;SDS011;33538;48.432;11.350;2023-05-15T07:54:02;15.82;;;7.22;;
47778;SDS011;33538;48.432;11.350;2023-05-15T07:56:31;13.18;;;5.95;;
47778;SDS011;33538;48.432;11.350;2023-05-15T07:58:57;15.23;;;6.55;;
47778;SDS011;33538;48.432;11.350;2023-05-15T08:01:24;11.77;;;6.38;;
47778;SDS011;33538;48.432;11.350;2023-05-15T08:03:51;10.27;;;6.30;;
47778;SDS011;33538;48.432;11.350;2023-05-15T08:06:18;10.60;;;5.95;;
47778;SDS011;33538;48.432;11.350;2023-05-15T08:08:45;11.45;;;6.05;;
47778;SDS011;33538;48.432;11.350;2023-05-15T08:11:12;12.43;;;6.55;;
47778;SDS011;33538;48.432;11.350;2023-05-15T08:13:41;11.20;;;6.15;;
47778;SDS011;33538;48.432;11.350;2023-05-15T08:16:08;12.35;;;6.15;;
47778;SDS011;33538;48.432;11.350;2023-05-15T08:18:34;13.05;;;6.55;;
47778;SDS011;33538;48.432;11.350;2023-05-15T08:21:01;13.43;;;6.25;;
47778;SDS011;33538;48.432;11.350;2023-05-15T08:23:30;11.00;;;6.47;;
47778;SDS011;33538;48.432;11.350;2023-05-15T08:25:56;12.52;;;6.00;;
47778;SDS011;33538;48.432;11.350;2023-05-15T08:28:23;12.00;;;6.97;;
47778;SDS011;33538;48.432;11.350;2023-05-15T08:30:51;11.82;;;6.40;;
47778;SDS011;33538;48.432;11.350;2023-05-15T08:33:18;13.43;;;6.75;;
47778;SDS011;33538;48.432;11.350;2023-05-15T08:35:45;10.98;;;5.95;;
47778;SDS011;33538;48.432;11.350;2023-05-15T08:38:11;11.30;;;6.72;;
47778;SDS011;33538;48.432;11.350;2023-05-15T08:40:38;11.95;;;6.28;;
47778;SDS011;33538;48.432;11.350;2023-05-15T08:43:08;11.05;;;6.03;;
47778;SDS011;33538;48.432;11.350;2023-05-15T08:45:38;11.15;;;6.18;;
47778;SDS011;33538;48.432;11.350;2023-05-15T08:48:07;13.70;;;6.68;;
47778;SDS011;33538;48.432;11.350;2023-05-15T08:50:37;12.18;;;6.00;;
47778;SDS011;33538;48.432;11.350;2023-05-15T08:53:04;10.73;;;5.78;;
47778;SDS011;33538;48.432;11.350;2023-05-15T08:55:32;13.23;;;6.60;;
47778;SDS011;33538;48.432;11.350;2023-05-15T08:58:00;10.32;;;6.25;;
47778;SDS011;33538;48.432;11.350;2023-05-15T09:00:27;12.77;;;6.97;;
47778;SDS011;33538;48.432;11.350;2023-05-15T09:02:58;11.32;;;6.20;;
47778;SDS011;33538;48.432;11.350;2023-05-15T09:05:27;11.60;;;7.18;;
47778;SDS011;33538;48.432;11.350;2023-05-15T09:07:55;11.57;;;6.78;;
47778;SDS011;33538;48.432;11.350;2023-05-15T09:10:23;11.48;;;6.60;;
47778;SDS011;33538;48.432;11.350;2023-05-15T09:12:51;10.75;;;6.47;;
47778;SDS011;33538;48.432;11.350;2023-05-15T09:15:18;11.43;;;6.63;;
47778;SDS011;33538;48.432;11.350;2023-05-15T09:17:47;13.25;;;6.53;;
47778;SDS011;33538;48.432;11.350;2023-05-15T09:20:25;12.30;;;6.45;;
47778;SDS011;33538;48.432;11.350;2023-05-15T09:22:55;16.00;;;6.65;;
47778;SDS011;33538;48.432;11.350;2023-05-15T09:25:32;9.43;;;6.05;;
47778;SDS011;33538;48.432;11.350;2023-05-15T09:28:00;10.93;;;6.13;;
47778;SDS011;33538;48.432;11.350;2023-05-15T09:30:26;9.30;;;5.90;;
47778;SDS011;33538;48.432;11.350;2023-05-15T09:32:54;7.60;;;4.93;;
47778;SDS011;33538;48.432;11.350;2023-05-15T09:35:31;8.57;;;5.07;;
47778;SDS011;33538;48.432;11.350;2023-05-15T09:37:58;8.85;;;5.35;;
47778;SDS011;33538;48.432;11.350;2023-05-15T09:40:29;9.20;;;5.32;;
47778;SDS011;33538;48.432;11.350;2023-05-15T09:42:57;9.52;;;5.63;;
47778;SDS011;33538;48.432;11.350;2023-05-15T09:45:24;8.77;;;5.60;;
47778;SDS011;33538;48.432;11.350;2023-05-15T09:47:52;10.50;;;6.20;;
47778;SDS011;33538;48.432;11.350;2023-05-15T09:50:19;10.55;;;6.07;;
47778;SDS011;33538;48.432;11.350;2023-05-15T09:52:48;10.48;;;5.60;;
47778;SDS011;33538;48.432;11.350;2023-05-15T09:55:15;9.80;;;5.53;;
47778;SDS011;33538;48.432;11.350;2023-05-15T09:57:42;10.32;;;5.07;;
47778;SDS011;33538;48.432;11.350;2023-05-15T10:00:09;8.93;;;5.80;;
47778;SDS011;33538;48.432;11.350;2023-05-15T10:02:38;12.02;;;6.45;;
47778;SDS011;33538;48.432;11.350;2023-05-15T10:05:06;11.18;;;5.65;;
47778;SDS011;33538;48.432;11.350;2023-05-15T10:07:34;8.52;;;5.63;;
47778;SDS011;33538;48.432;11.350;2023-05-15T10:10:03;10.85;;;5.93;;
47778;SDS011;33538;48.432;11.350;2023-05-15T10:12:30;9.00;;;5.82;;
47778;SDS011;33538;48.432;11.350;2023-05-15T10:14:58;11.20;;;6.18;;
47778;SDS011;33538;48.432;11.350;2023-05-15T10:17:26;10.43;;;5.65;;
47778;SDS011;33538;48.432;11.350;2023-05-15T10:19:57;8.63;;;5.05;;
47778;SDS011;33538;48.432;11.350;2023-05-15T10:22:27;9.18;;;5.70;;
47778;SDS011;33538;48.432;11.350;2023-05-15T10:24:57;9.82;;;5.10;;
47778;SDS011;33538;48.432;11.350;2023-05-15T10:27:29;8.68;;;5.43;;
47778;SDS011;33538;48.432;11.350;2023-05-15T10:29:57;8.13;;;4.72;;
47778;SDS011;33538;48.432;11.350;2023-05-15T10:32:25;9.77;;;5.63;;
47778;SDS011;33538;48.432;11.350;2023-05-15T10:34:52;8.55;;;5.20;;
47778;SDS011;33538;48.432;11.350;2023-05-15T10:37:19;7.20;;;4.47;;
47778;SDS011;33538;48.432;11.350;2023-05-15T10:39:47;7.75;;;4.90;;
47778;SDS011;33538;48.432;11.350;2023-05-15T10:42:15;7.22;;;4.50;;
47778;SDS011;33538;48.432;11.350;2023-05-15T10:44:44;7.88;;;5.25;;
47778;SDS011;33538;48.432;11.350;2023-05-15T10:47:11;9.88;;;5.15;;
47778;SDS011;33538;48.432;11.350;2023-05-15T10:49:38;4.57;;;2.78;;
47778;SDS011;33538;48.432;11.350;2023-05-15T10:52:05;3.15;;;2.13;;
47778;SDS011;33538;48.432;11.350;2023-05-15T10:54:32;3.17;;;2.28;;
47778;SDS011;33538;48.432;11.350;2023-05-15T10:56:58;3.58;;;2.30;;
47778;SDS011;33538;48.432;11.350;2023-05-15T10:59:32;3.80;;;2.20;;
47778;SDS011;33538;48.432;11.350;2023-05-15T11:04:42;2.00;;;1.70;;
47778;SDS011;33538;48.432;11.350;2023-05-15T11:07:10;2.83;;;1.80;;
47778;SDS011;33538;48.432;11.350;2023-05-15T11:09:38;3.20;;;2.20;;
47778;SDS011;33538;48.432;11.350;2023-05-15T11:12:06;3.08;;;2.25;;
47778;SDS011;33538;48.432;11.350;2023-05-15T11:14:34;3.92;;;2.38;;
47778;SDS011;33538;48.432;11.350;2023-05-15T11:17:03;4.10;;;2.65;;
47778;SDS011;33538;48.432;11.350;2023-05-15T11:22:27;4.30;;;3.03;;
47778;SDS011;33538;48.432;11.350;2023-05-15T11:24:59;4.90;;;3.00;;
47778;SDS011;33538;48.432;11.350;2023-05-15T11:27:28;4.90;;;3.47;;
47778;SDS011;33538;48.432;11.350;2023-05-15T11:30:07;4.35;;;3.05;;
47778;SDS011;33538;48.432;11.350;2023-05-15T11:32:41;3.35;;;2.28;;
47778;SDS011;33538;48.432;11.350;2023-05-15T11:35:11;3.70;;;2.35;;
47778;SDS011;33538;48.432;11.350;2023-05-15T11:37:45;4.47;;;2.85;;
47778;SDS011;33538;48.432;11.350;2023-05-15T11:40:17;4.55;;;3.03;;
47778;SDS011;33538;48.432;11.350;2023-05-15T11:42:57;2.58;;;1.88;;
47778;SDS011;33538;48.432;11.350;2023-05-15T11:45:28;2.28;;;1.70;;
47778;SDS011;33538;48.432;11.350;2023-05-15T11:47:56;2.00;;;1.75;;
47778;SDS011;33538;48.432;11.350;2023-05-15T11:50:27;2.78;;;2.20;;
47778;SDS011;33538;48.432;11.350;2023-05-15T11:52:55;3.03;;;2.15;;
47778;SDS011;33538;48.432;11.350;2023-05-15T11:55:22;3.97;;;2.55;;
47778;SDS011;33538;48.432;11.350;2023-05-15T11:57:50;6.55;;;2.50;;
47778;SDS011;33538;48.432;11.350;2023-05-15T12:00:17;2.83;;;2.08;;
47778;SDS011;33538;48.432;11.350;2023-05-15T12:02:44;5.75;;;2.88;;
47778;SDS011;33538;48.432;11.350;2023-05-15T12:05:11;3.03;;;2.17;;
47778;SDS011;33538;48.432;11.350;2023-05-15T12:07:39;5.18;;;2.45;;
47778;SDS011;33538;48.432;11.350;2023-05-15T12:10:08;3.22;;;2.47;;
47778;SDS011;33538;48.432;11.350;2023-05-15T12:12:37;3.35;;;2.28;;
47778;SDS011;33538;48.432;11.350;2023-05-15T12:15:07;6.38;;;2.50;;
47778;SDS011;33538;48.432;11.350;2023-05-15T12:17:35;2.72;;;2.30;;
47778;SDS011;33538;48.432;11.350;2023-05-15T12:20:03;3.65;;;2.40;;
47778;SDS011;33538;48.432;11.350;2023-05-15T12:22:34;3.10;;;2.40;;
47778;SDS011;33538;48.432;11.350;2023-05-15T12:25:03;4.53;;;2.78;;
47778;SDS011;33538;48.432;11.350;2023-05-15T12:27:31;3.88;;;2.60;;
47778;SDS011;33538;48.432;11.350;2023-05-15T12:29:58;4.15;;;2.95;;
47778;SDS011;33538;48.432;11.350;2023-05-15T12:32:26;3.67;;;2.63;;
47778;SDS011;33538;48.432;11.350;2023-05-15T12:34:54;4.30;;;3.08;;
47778;SDS011;33538;48.432;11.350;2023-05-15T12:37:21;3.30;;;2.53;;
47778;SDS011;33538;48.432;11.350;2023-05-15T12:39:49;4.30;;;2.80;;
47778;SDS011;33538;48.432;11.350;2023-05-15T12:42:18;3.55;;;3.00;;
47778;SDS011;33538;48.432;11.350;2023-05-15T12:44:45;3.17;;;2.80;;
47778;SDS011;33538;48.432;11.350;2023-05-15T12:47:19;4.72;;;3.00;;
47778;SDS011;33538;48.432;11.350;2023-05-15T12:49:47;5.22;;;3.20;;
47778;SDS011;33538;48.432;11.350;2023-05-15T12:52:14;4.80;;;3.40;;
47778;SDS011;33538;48.432;11.350;2023-05-15T12:54:41;3.95;;;3.10;;
47778;SDS011;33538;48.432;11.350;2023-05-15T12:57:09;7.47;;;3.20;;
47778;SDS011;33538;48.432;11.350;2023-05-15T12:59:38;4.20;;;3.33;;
47778;SDS011;33538;48.432;11.350;2023-05-15T13:02:08;4.68;;;2.90;;
47778;SDS011;33538;48.432;11.350;2023-05-15T13:04:35;4.38;;;2.95;;
47778;SDS011;33538;48.432;11.350;2023-05-15T13:07:02;3.42;;;2.88;;
47778;SDS011;33538;48.432;11.350;2023-05-15T13:09:30;4.53;;;3.38;;
47778;SDS011;33538;48.432;11.350;2023-05-15T13:11:57;5.55;;;3.30;;
47778;SDS011;33538;48.432;11.350;2023-05-15T13:14:26;4.72;;;3.05;;
47778;SDS011;33538;48.432;11.350;2023-05-15T13:16:59;4.97;;;3.60;;
47778;SDS011;33538;48.432;11.350;2023-05-15T13:19:26;6.93;;;3.60;;
47778;SDS011;33538;48.432;11.350;2023-05-15T13:21:53;4.20;;;3.00;;
47778;SDS011;33538;48.432;11.350;2023-05-15T13:24:20;4.95;;;3.47;;
47778;SDS011;33538;48.432;11.350;2023-05-15T13:26:47;3.65;;;3.15;;
47778;SDS011;33538;48.432;11.350;2023-05-15T13:29:14;4.30;;;3.42;;
47778;SDS011;33538;48.432;11.350;2023-05-15T13:31:41;4.00;;;2.95;;
47778;SDS011;33538;48.432;11.350;2023-05-15T13:34:09;2.60;;;2.28;;
47778;SDS011;33538;48.432;11.350;2023-05-15T13:36:36;3.38;;;1.98;;
47778;SDS011;33538;48.432;11.350;2023-05-15T13:39:02;2.70;;;1.75;;
47778;SDS011;33538;48.432;11.350;2023-05-15T13:41:29;3.00;;;2.00;;
47778;SDS011;33538;48.432;11.350;2023-05-15T13:43:56;5.25;;;2.10;;
47778;SDS011;33538;48.432;11.350;2023-05-15T13:46:23;2.33;;;1.90;;
47778;SDS011;33538;48.432;11.350;2023-05-15T13:48:50;2.72;;;2.25;;
47778;SDS011;33538;48.432;11.350;2023-05-15T13:51:18;3.22;;;2.00;;
47778;SDS011;33538;48.432;11.350;2023-05-15T13:53:45;2.70;;;1.90;;
47778;SDS011;33538;48.432;11.350;2023-05-15T13:56:12;2.75;;;1.92;;
47778;SDS011;33538;48.432;11.350;2023-05-15T13:58:39;4.40;;;1.98;;
47778;SDS011;33538;48.432;11.350;2023-05-15T14:01:05;2.75;;;1.98;;
47778;SDS011;33538;48.432;11.350;2023-05-15T14:03:32;2.55;;;1.90;;
47778;SDS011;33538;48.432;11.350;2023-05-15T14:05:59;2.58;;;1.90;;
47778;SDS011;33538;48.432;11.350;2023-05-15T14:08:27;2.78;;;1.85;;
47778;SDS011;33538;48.432;11.350;2023-05-15T14:10:54;1.98;;;1.60;;
47778;SDS011;33538;48.432;11.350;2023-05-15T14:13:21;1.70;;;1.60;;
47778;SDS011;33538;48.432;11.350;2023-05-15T14:15:48;3.38;;;1.77;;
47778;SDS011;33538;48.432;11.350;2023-05-15T14:18:14;2.28;;;1.83;;
47778;SDS011;33538;48.432;11.350;2023-05-15T14:20:41;2.30;;;2.10;;
47778;SDS011;33538;48.432;11.350;2023-05-15T14:23:08;2.10;;;1.80;;
47778;SDS011;33538;48.432;11.350;2023-05-15T14:25:36;2.15;;;1.90;;
47778;SDS011;33538;48.432;11.350;2023-05-15T14:28:03;3.20;;;1.90;;
47778;SDS011;33538;48.432;11.350;2023-05-15T14:30:30;2.20;;;1.83;;
47778;SDS011;33538;48.432;11.350;2023-05-15T14:32:57;3.30;;;2.30;;
47778;SDS011;33538;48.432;11.350;2023-05-15T14:35:23;3.22;;;2.35;;
47778;SDS011;33538;48.432;11.350;2023-05-15T14:37:50;2.90;;;2.25;;